Time;durP1;ratioP1;P1;durP2;ratioP2;P2;SDS_P1;SDS_P2;PMS_P1;PMS_P2;Temp;Humidity;BMP_temperature;BMP_pressure;BME280_temperature;BME280_humidity;BME280_pressure;Samples;Min_cycle;Max_cycle;Signal;HPM_P1;HPM_P2
2022/12/04 00:02:17;;;;;;;;;;;4.40;96.70;;;;;;5042924;28;20499;-76
2022/12/04 00:04:44;;;;;;;;;;;4.40;96.70;;;;;;5045178;28;20460;-76
2022/12/04 00:07:10;;;;;;;;;;;4.30;96.70;;;;;;5049109;28;20455;-77
2022/12/04 00:09:37;;;;;;;;;;;4.40;96.70;;;;;;5043950;28;20650;-77
2022/12/04 00:12:04;;;;;;;;;;;4.40;96.80;;;;;;5036675;28;20569;-77
2022/12/04 00:14:30;;;;;;;;;;;4.40;96.80;;;;;;5045283;28;19998;-77
2022/12/04 00:16:58;;;;;;;;;;;4.40;96.80;;;;;;5040023;28;19991;-76
2022/12/04 00:19:25;;;;;;;;;;;4.40;96.80;;;;;;5048394;28;19999;-77
2022/12/04 00:21:51;;;;;;;;;;;4.30;96.80;;;;;;5045975;28;19979;-76
2022/12/04 00:24:18;;;;;;;;;;;4.40;96.80;;;;;;5046084;28;19996;-77
2022/12/04 00:26:44;;;;;;;;;;;4.30;96.80;;;;;;5047302;28;19979;-77
2022/12/04 00:29:11;;;;;;;;;;;4.40;96.80;;;;;;5043877;28;19999;-76
2022/12/04 00:31:38;;;;;;;;;;;4.30;96.80;;;;;;5038487;28;19996;-76
2022/12/04 00:34:06;;;;;;;;;;;4.30;96.80;;;;;;5045575;28;19982;-76
2022/12/04 00:36:32;;;;;;;;;;;4.30;96.80;;;;;;5045510;28;20401;-76
2022/12/04 00:39:00;;;;;;;;;;;4.30;96.80;;;;;;5044206;28;19997;-77
2022/12/04 00:41:27;;;;;;;;;;;4.30;96.80;;;;;;5043924;28;20520;-76
2022/12/04 00:43:54;;;;;;;;;;;4.30;96.80;;;;;;5039568;28;19988;-76
2022/12/04 00:46:21;;;;;;;;;;;4.30;96.80;;;;;;5036446;28;19996;-76
2022/12/04 00:48:48;;;;;;;;;;;4.30;96.80;;;;;;5041621;28;19996;-75
2022/12/04 00:51:17;;;;;;;;;;;4.30;96.80;;;;;;5044328;28;19987;-76
2022/12/04 00:53:44;;;;;;;;;;;4.30;96.80;;;;;;5036801;28;19980;-75
2022/12/04 00:56:11;;;;;;;;;;;4.30;96.80;;;;;;5040937;28;20058;-76
2022/12/04 00:58:38;;;;;;;;;;;4.30;96.80;;;;;;5045174;28;20006;-75
2022/12/04 01:01:06;;;;;;;;;;;4.30;96.80;;;;;;5041483;28;19991;-74
2022/12/04 01:03:33;;;;;;;;;;;4.30;96.80;;;;;;5039991;28;19976;-76
2022/12/04 01:05:59;;;;;;;;;;;4.30;96.80;;;;;;5045507;28;20720;-76
2022/12/04 01:08:27;;;;;;;;;;;4.30;96.80;;;;;;5044821;28;20461;-76
2022/12/04 01:10:54;;;;;;;;;;;4.20;96.80;;;;;;5043685;28;19979;-76
2022/12/04 01:13:22;;;;;;;;;;;4.30;96.80;;;;;;5045449;28;19979;-76
2022/12/04 01:15:49;;;;;;;;;;;4.20;96.70;;;;;;5044314;28;20002;-76
2022/12/04 01:18:15;;;;;;;;;;;4.20;96.70;;;;;;5041755;28;19976;-76
2022/12/04 01:20:46;;;;;;;;;;;4.30;96.70;;;;;;5039858;28;19980;-75
2022/12/04 01:23:13;;;;;;;;;;;4.20;96.70;;;;;;5039439;28;20333;-76
2022/12/04 01:25:41;;;;;;;;;;;4.30;96.80;;;;;;5040665;28;19996;-75
2022/12/04 01:28:07;;;;;;;;;;;4.20;96.80;;;;;;5041319;28;19983;-75
2022/12/04 01:30:34;;;;;;;;;;;4.20;96.80;;;;;;5038291;28;19991;-76
2022/12/04 01:33:00;;;;;;;;;;;4.20;96.80;;;;;;5043565;28;19976;-76
2022/12/04 01:35:27;;;;;;;;;;;4.20;96.80;;;;;;5040832;28;20358;-76
2022/12/04 01:37:53;;;;;;;;;;;4.20;96.80;;;;;;5040396;28;20525;-75
2022/12/04 01:40:20;;;;;;;;;;;4.20;97.10;;;;;;5043186;28;19992;-75
2022/12/04 01:42:48;;;;;;;;;;;4.20;96.80;;;;;;5042263;28;19995;-76
2022/12/04 01:45:33;;;;;;;;;;;4.20;96.80;;;;;;5043933;28;19995;-76
2022/12/04 01:48:03;;;;;;;;;;;4.20;96.80;;;;;;5040670;28;19976;-77
2022/12/04 01:50:30;;;;;;;;;;;4.20;96.80;;;;;;5043243;28;20038;-75
2022/12/04 01:52:56;;;;;;;;;;;4.20;96.80;;;;;;5039548;28;19980;-75
2022/12/04 01:55:23;;;;;;;;;;;4.20;96.80;;;;;;5042687;28;19991;-76
2022/12/04 01:57:51;;;;;;;;;;;4.20;96.80;;;;;;5043848;28;19984;-77
2022/12/04 02:00:18;;;;;;;;;;;4.10;96.80;;;;;;5037389;28;19991;-76
2022/12/04 02:02:46;;;;;;;;;;;4.20;96.80;;;;;;5040506;28;19983;-75
2022/12/04 02:05:13;;;;;;;;;;;4.20;96.80;;;;;;5040763;28;20007;-77
2022/12/04 02:07:40;;;;;;;;;;;4.20;96.80;;;;;;5042258;28;19980;-76
2022/12/04 02:10:08;;;;;;;;;;;4.10;96.80;;;;;;5042628;28;20336;-76
2022/12/04 02:12:38;;;;;;;;;;;4.10;96.80;;;;;;5036646;28;20093;-75
2022/12/04 02:15:09;;;;;;;;;;;4.10;96.80;;;;;;5042533;28;19980;-76
2022/12/04 02:17:38;;;;;;;;;;;4.20;96.90;;;;;;5040547;28;20002;-76
2022/12/04 02:20:11;;;;;;;;;;;4.10;96.90;;;;;;5041032;28;19995;-76
2022/12/04 02:22:51;;;;;;;;;;;4.20;97.20;;;;;;5038571;28;19975;-74
2022/12/04 02:25:21;;;;;;;;;;;4.10;96.90;;;;;;5041828;28;20455;-75
2022/12/04 02:28:00;;;;;;;;;;;4.10;96.90;;;;;;5037973;28;19980;-76
2022/12/04 02:30:27;;;;;;;;;;;4.10;96.90;;;;;;5042171;28;20007;-75
2022/12/04 02:32:57;;;;;;;;;;;4.10;96.90;;;;;;5041653;28;20436;-75
2022/12/04 02:35:26;;;;;;;;;;;4.10;96.90;;;;;;5039945;28;19986;-76
2022/12/04 02:37:55;;;;;;;;;;;4.10;96.90;;;;;;5038181;28;20480;-76
2022/12/04 02:40:25;;;;;;;;;;;4.10;96.90;;;;;;5039900;28;19996;-76
2022/12/04 02:42:55;;;;;;;;;;;4.10;96.90;;;;;;5040105;28;20351;-76
2022/12/04 02:45:26;;;;;;;;;;;4.10;96.90;;;;;;5037719;28;19997;-75
2022/12/04 02:47:53;;;;;;;;;;;4.10;97.00;;;;;;5038111;28;20053;-76
2022/12/04 02:50:21;;;;;;;;;;;4.10;97.00;;;;;;5043494;28;20091;-76
2022/12/04 02:52:50;;;;;;;;;;;4.10;97.00;;;;;;5040380;28;20076;-76
2022/12/04 02:55:19;;;;;;;;;;;4.10;97.00;;;;;;5041137;28;20010;-76
2022/12/04 02:57:48;;;;;;;;;;;4.10;96.90;;;;;;5041367;28;19976;-76
2022/12/04 03:00:15;;;;;;;;;;;4.10;96.90;;;;;;5040323;28;20034;-77
2022/12/04 03:02:46;;;;;;;;;;;4.10;97.00;;;;;;5038286;28;19976;-76
2022/12/04 03:05:15;;;;;;;;;;;4.10;96.90;;;;;;5037519;28;19998;-75
2022/12/04 03:07:45;;;;;;;;;;;4.10;96.90;;;;;;5037290;28;20351;-75
2022/12/04 03:10:15;;;;;;;;;;;4.10;97.00;;;;;;5033374;28;20003;-73
2022/12/04 03:12:43;;;;;;;;;;;4.10;97.00;;;;;;5035400;28;20436;-77
2022/12/04 03:15:12;;;;;;;;;;;4.10;97.00;;;;;;5038804;28;20514;-76
2022/12/04 03:17:45;;;;;;;;;;;4.10;97.00;;;;;;5037726;28;20038;-75
2022/12/04 03:20:15;;;;;;;;;;;4.10;97.00;;;;;;5038943;28;20003;-76
2022/12/04 03:22:43;;;;;;;;;;;4.00;96.90;;;;;;5037790;28;19987;-76
2022/12/04 03:25:10;;;;;;;;;;;4.10;96.90;;;;;;5040907;28;20439;-76
2022/12/04 03:27:40;;;;;;;;;;;4.10;96.90;;;;;;5041798;28;19979;-76
2022/12/04 03:30:08;;;;;;;;;;;4.10;96.90;;;;;;5039821;28;19996;-75
2022/12/04 03:32:36;;;;;;;;;;;4.00;96.90;;;;;;5034493;28;20065;-76
2022/12/04 03:35:05;;;;;;;;;;;4.10;96.90;;;;;;5041518;28;20479;-76
2022/12/04 03:37:36;;;;;;;;;;;4.00;97.00;;;;;;5038817;28;20009;-76
2022/12/04 03:40:06;;;;;;;;;;;4.00;97.00;;;;;;5040388;28;20463;-76
2022/12/04 03:42:36;;;;;;;;;;;4.00;97.00;;;;;;5037268;28;19979;-76
2022/12/04 03:45:08;;;;;;;;;;;4.10;97.10;;;;;;5040293;28;19983;-76
2022/12/04 03:47:37;;;;;;;;;;;4.00;97.00;;;;;;5038482;28;20002;-76
2022/12/04 03:50:07;;;;;;;;;;;4.00;97.30;;;;;;5037130;28;19991;-76
2022/12/04 03:52:37;;;;;;;;;;;4.00;97.00;;;;;;5036838;28;20371;-76
2022/12/04 03:55:06;;;;;;;;;;;4.00;97.10;;;;;;5038701;28;19983;-75
2022/12/04 03:57:36;;;;;;;;;;;4.00;97.10;;;;;;5041039;28;19987;-75
2022/12/04 04:00:04;;;;;;;;;;;4.00;97.10;;;;;;5040356;28;19992;-76
2022/12/04 04:02:33;;;;;;;;;;;4.10;97.20;;;;;;5038435;28;19991;-76
2022/12/04 04:05:01;;;;;;;;;;;4.10;97.20;;;;;;5037151;28;19984;-76
2022/12/04 04:07:29;;;;;;;;;;;4.00;97.10;;;;;;5041460;28;19991;-76
2022/12/04 04:09:59;;;;;;;;;;;4.00;97.10;;;;;;5043179;28;20000;-76
2022/12/04 04:12:29;;;;;;;;;;;4.00;97.10;;;;;;5040393;28;19978;-76
2022/12/04 04:26:08;;;;;;;;;;;4.00;97.00;;;;;;5039164;28;19999;-76
2022/12/04 04:28:36;;;;;;;;;;;4.00;97.00;;;;;;5041827;28;19995;-76
2022/12/04 04:31:05;;;;;;;;;;;4.00;97.00;;;;;;5039294;28;19988;-75
2022/12/04 04:33:35;;;;;;;;;;;4.00;97.00;;;;;;5037162;28;19986;-76
2022/12/04 04:36:05;;;;;;;;;;;4.00;97.00;;;;;;5035681;28;19976;-76
2022/12/04 04:38:36;;;;;;;;;;;4.00;97.00;;;;;;5034050;28;19991;-76
2022/12/04 04:41:07;;;;;;;;;;;4.00;97.00;;;;;;5037766;28;20524;-76
2022/12/04 04:43:36;;;;;;;;;;;4.00;97.00;;;;;;5034878;28;19976;-76
2022/12/04 04:46:05;;;;;;;;;;;4.00;97.00;;;;;;5039610;28;19992;-75
2022/12/04 04:48:34;;;;;;;;;;;4.00;97.00;;;;;;5039843;28;19988;-76
2022/12/04 04:51:01;;;;;;;;;;;4.00;97.00;;;;;;5039781;28;20086;-76
2022/12/04 04:53:30;;;;;;;;;;;4.00;97.10;;;;;;5045099;28;19987;-76
2022/12/04 04:55:56;;;;;;;;;;;4.00;97.10;;;;;;5046435;28;19980;-75
2022/12/04 04:58:23;;;;;;;;;;;4.00;97.10;;;;;;5044754;28;19976;-75
2022/12/04 05:00:56;;;;;;;;;;;4.00;97.10;;;;;;5039173;28;20007;-76
2022/12/04 05:03:23;;;;;;;;;;;4.00;97.20;;;;;;5051289;28;20438;-76
2022/12/04 05:05:50;;;;;;;;;;;4.00;97.20;;;;;;5047151;28;20035;-75
2022/12/04 05:08:16;;;;;;;;;;;4.00;97.20;;;;;;5045041;28;19972;-75
2022/12/04 05:10:43;;;;;;;;;;;4.00;97.20;;;;;;5045364;28;19972;-76
2022/12/04 05:13:11;;;;;;;;;;;4.00;97.10;;;;;;5046445;28;20451;-75
2022/12/04 05:15:38;;;;;;;;;;;4.00;97.20;;;;;;5043458;28;19995;-76
2022/12/04 05:18:06;;;;;;;;;;;4.00;97.20;;;;;;5042426;28;19994;-76
2022/12/04 05:20:31;;;;;;;;;;;4.00;97.20;;;;;;5045639;28;19972;-76
2022/12/04 05:22:58;;;;;;;;;;;4.00;97.20;;;;;;5041313;28;19987;-76
2022/12/04 05:25:25;;;;;;;;;;;4.00;97.20;;;;;;5043808;28;19983;-76
2022/12/04 05:27:51;;;;;;;;;;;4.00;97.20;;;;;;5040769;28;20734;-76
2022/12/04 05:30:18;;;;;;;;;;;4.00;97.20;;;;;;5037672;28;20007;-76
2022/12/04 05:32:45;;;;;;;;;;;4.00;97.20;;;;;;5040710;28;19976;-77
2022/12/04 05:35:13;;;;;;;;;;;4.00;97.20;;;;;;5038977;28;20641;-76
2022/12/04 05:37:40;;;;;;;;;;;4.00;97.20;;;;;;5039518;28;19975;-75
2022/12/04 05:40:07;;;;;;;;;;;4.00;97.20;;;;;;5041444;28;19988;-75
2022/12/04 05:42:34;;;;;;;;;;;4.00;97.20;;;;;;5042975;28;20013;-75
2022/12/04 05:45:00;;;;;;;;;;;4.00;97.20;;;;;;5041125;28;19980;-75
2022/12/04 05:47:27;;;;;;;;;;;4.00;97.20;;;;;;5040070;28;20002;-75
2022/12/04 05:49:54;;;;;;;;;;;4.00;97.20;;;;;;5038164;28;19992;-76
2022/12/04 05:52:21;;;;;;;;;;;4.00;97.20;;;;;;5039825;28;19972;-76
2022/12/04 05:54:48;;;;;;;;;;;4.00;97.20;;;;;;5039712;28;20376;-75
2022/12/04 05:57:15;;;;;;;;;;;4.00;97.20;;;;;;5042358;28;19972;-77
2022/12/04 05:59:41;;;;;;;;;;;4.00;97.20;;;;;;5041902;28;19991;-76
2022/12/04 06:02:08;;;;;;;;;;;4.00;97.20;;;;;;5038801;28;19999;-76
2022/12/04 06:04:36;;;;;;;;;;;4.00;97.20;;;;;;5037187;28;19980;-76
2022/12/04 06:07:03;;;;;;;;;;;4.00;97.20;;;;;;5041135;28;20003;-76
2022/12/04 06:09:30;;;;;;;;;;;4.00;97.30;;;;;;5043749;28;20463;-76
2022/12/04 06:11:57;;;;;;;;;;;4.00;97.20;;;;;;5040695;28;19980;-78
2022/12/04 06:14:24;;;;;;;;;;;3.90;97.20;;;;;;5039430;28;20096;-76
2022/12/04 06:16:50;;;;;;;;;;;4.00;97.20;;;;;;5039789;28;20082;-76
2022/12/04 06:19:19;;;;;;;;;;;4.00;97.20;;;;;;5041309;28;19992;-76
2022/12/04 06:21:46;;;;;;;;;;;3.90;97.20;;;;;;5035568;28;19980;-72
2022/12/04 06:24:14;;;;;;;;;;;4.00;97.20;;;;;;5037151;28;19976;-75
2022/12/04 06:26:42;;;;;;;;;;;4.00;97.20;;;;;;5039750;28;20014;-73
2022/12/04 06:29:09;;;;;;;;;;;4.00;97.40;;;;;;5036888;28;20647;-76
2022/12/04 06:31:36;;;;;;;;;;;3.90;97.20;;;;;;5036969;28;20671;-74
2022/12/04 06:34:04;;;;;;;;;;;4.00;97.20;;;;;;5037587;28;19986;-74
2022/12/04 06:36:30;;;;;;;;;;;3.90;97.20;;;;;;5034892;28;19975;-75
2022/12/04 06:38:57;;;;;;;;;;;4.00;97.20;;;;;;5034737;28;19998;-74
2022/12/04 06:41:24;;;;;;;;;;;4.00;97.30;;;;;;5033478;28;20991;-74
2022/12/04 06:43:52;;;;;;;;;;;4.00;97.20;;;;;;5030864;28;19988;-75
2022/12/04 06:46:20;;;;;;;;;;;4.00;97.30;;;;;;5026699;28;20286;-76
2022/12/04 06:48:46;;;;;;;;;;;3.90;97.20;;;;;;5025018;28;20474;-74
2022/12/04 06:51:14;;;;;;;;;;;4.00;97.30;;;;;;5025543;28;19980;-75
2022/12/04 06:53:41;;;;;;;;;;;4.00;97.20;;;;;;5024909;28;19980;-75
2022/12/04 06:56:09;;;;;;;;;;;4.00;97.20;;;;;;5025438;28;20019;-75
2022/12/04 06:58:36;;;;;;;;;;;3.90;97.20;;;;;;5030594;28;19991;-74
2022/12/04 07:01:07;;;;;;;;;;;3.90;97.30;;;;;;5034743;28;20553;-75
2022/12/04 07:03:34;;;;;;;;;;;3.90;97.20;;;;;;5040814;28;19982;-75
2022/12/04 07:06:09;;;;;;;;;;;3.90;97.30;;;;;;5035755;28;19976;-75
2022/12/04 07:08:35;;;;;;;;;;;3.90;97.30;;;;;;5027184;28;19992;-75
2022/12/04 07:11:02;;;;;;;;;;;4.00;97.30;;;;;;5024888;28;19986;-75
2022/12/04 07:13:29;;;;;;;;;;;4.00;97.30;;;;;;5031165;28;19980;-75
2022/12/04 07:15:55;;;;;;;;;;;3.90;97.30;;;;;;5030218;28;19995;-77
2022/12/04 07:18:23;;;;;;;;;;;4.00;97.30;;;;;;5036148;28;19980;-73
2022/12/04 07:20:50;;;;;;;;;;;4.00;97.30;;;;;;5040969;28;19987;-73
2022/12/04 07:23:16;;;;;;;;;;;3.90;97.30;;;;;;5036523;28;19975;-72
2022/12/04 07:25:43;;;;;;;;;;;3.90;97.30;;;;;;5034354;28;20550;-72
2022/12/04 07:28:09;;;;;;;;;;;4.00;97.40;;;;;;5041987;28;19991;-72
2022/12/04 07:30:36;;;;;;;;;;;4.00;97.30;;;;;;5038646;28;20455;-72
2022/12/04 07:33:03;;;;;;;;;;;4.00;97.30;;;;;;5039727;28;19975;-72
2022/12/04 07:35:31;;;;;;;;;;;4.00;97.30;;;;;;5042895;28;20753;-73
2022/12/04 07:37:58;;;;;;;;;;;4.00;97.30;;;;;;5039965;28;19987;-72
2022/12/04 07:40:24;;;;;;;;;;;4.00;97.30;;;;;;5041780;28;20513;-72
2022/12/04 07:42:51;;;;;;;;;;;4.00;97.30;;;;;;5042590;28;19983;-70
2022/12/04 07:45:17;;;;;;;;;;;4.00;97.30;;;;;;5039256;28;19980;-73
2022/12/04 07:47:44;;;;;;;;;;;4.00;97.30;;;;;;5037425;28;20002;-73
2022/12/04 07:50:10;;;;;;;;;;;4.00;97.30;;;;;;5042305;28;19998;-73
2022/12/04 07:52:39;;;;;;;;;;;4.00;97.30;;;;;;5041719;28;20994;-72
2022/12/04 07:55:06;;;;;;;;;;;4.00;97.30;;;;;;5043704;28;19975;-72
2022/12/04 07:57:32;;;;;;;;;;;4.00;97.30;;;;;;5042965;28;19975;-73
2022/12/04 07:59:59;;;;;;;;;;;4.00;97.30;;;;;;5036371;28;20482;-73
2022/12/04 08:02:26;;;;;;;;;;;4.00;97.30;;;;;;5034762;28;20002;-71
2022/12/04 08:04:52;;;;;;;;;;;4.00;97.30;;;;;;5042663;28;19983;-73
2022/12/04 08:07:19;;;;;;;;;;;3.90;97.30;;;;;;5042630;28;19992;-72
2022/12/04 08:09:47;;;;;;;;;;;4.00;97.30;;;;;;5042440;28;20601;-74
2022/12/04 08:12:13;;;;;;;;;;;4.00;97.30;;;;;;5040608;28;19975;-73
2022/12/04 08:14:40;;;;;;;;;;;4.00;97.30;;;;;;5043202;28;19976;-73
2022/12/04 08:17:06;;;;;;;;;;;4.00;97.30;;;;;;5041314;28;19999;-73
2022/12/04 08:19:33;;;;;;;;;;;4.00;97.30;;;;;;5038747;28;19998;-73
2022/12/04 08:22:00;;;;;;;;;;;4.00;97.30;;;;;;5037601;28;19973;-73
2022/12/04 08:24:26;;;;;;;;;;;3.90;97.30;;;;;;5041618;28;19972;-72
2022/12/04 08:26:54;;;;;;;;;;;4.00;97.30;;;;;;5040171;28;19995;-73
2022/12/04 08:29:21;;;;;;;;;;;4.00;97.30;;;;;;5046143;28;19996;-73
2022/12/04 08:31:48;;;;;;;;;;;4.00;97.30;;;;;;5045651;28;20000;-73
2022/12/04 08:34:14;;;;;;;;;;;4.00;97.30;;;;;;5040928;28;20239;-73
2022/12/04 08:36:41;;;;;;;;;;;4.00;97.30;;;;;;5039316;28;19975;-73
2022/12/04 08:39:07;;;;;;;;;;;4.00;97.30;;;;;;5041954;28;19996;-73
2022/12/04 08:41:34;;;;;;;;;;;4.00;97.30;;;;;;5042158;28;19990;-73
2022/12/04 08:44:02;;;;;;;;;;;4.00;97.30;;;;;;5043221;28;19972;-73
2022/12/04 08:46:28;;;;;;;;;;;4.00;97.20;;;;;;5037420;28;19995;-73
2022/12/04 08:48:55;;;;;;;;;;;4.00;97.20;;;;;;5040719;28;20002;-72
2022/12/04 08:51:23;;;;;;;;;;;4.00;97.30;;;;;;5044517;28;20447;-74
2022/12/04 08:53:52;;;;;;;;;;;4.00;97.30;;;;;;5041205;28;20530;-73
2022/12/04 08:56:19;;;;;;;;;;;4.00;97.20;;;;;;5044462;28;19976;-73
2022/12/04 08:58:45;;;;;;;;;;;4.00;97.20;;;;;;5039111;28;19999;-73
2022/12/04 09:01:14;;;;;;;;;;;4.00;97.30;;;;;;5043336;28;19992;-73
2022/12/04 09:03:41;;;;;;;;;;;4.00;97.30;;;;;;5047662;28;19991;-72
2022/12/04 09:06:08;;;;;;;;;;;4.00;97.30;;;;;;5046612;28;19983;-72
2022/12/04 09:08:35;;;;;;;;;;;4.00;97.30;;;;;;5045035;28;19995;-73
2022/12/04 09:11:03;;;;;;;;;;;4.00;97.30;;;;;;5045471;28;19976;-72
2022/12/04 09:13:30;;;;;;;;;;;4.00;97.30;;;;;;5043795;28;19983;-72
2022/12/04 09:15:56;;;;;;;;;;;4.00;97.30;;;;;;5041677;28;19999;-73
2022/12/04 09:18:24;;;;;;;;;;;4.00;97.30;;;;;;5044387;28;19980;-72
2022/12/04 09:20:55;;;;;;;;;;;4.00;97.30;;;;;;5043751;28;19979;-72
2022/12/04 09:23:21;;;;;;;;;;;4.00;97.20;;;;;;5044018;28;20351;-73
2022/12/04 09:25:48;;;;;;;;;;;4.00;97.30;;;;;;5045014;28;20363;-73
2022/12/04 09:28:15;;;;;;;;;;;4.00;97.30;;;;;;5044666;28;19988;-73
2022/12/04 09:30:41;;;;;;;;;;;4.00;97.20;;;;;;5044105;28;19999;-73
2022/12/04 09:33:08;;;;;;;;;;;4.10;97.20;;;;;;5040566;28;19975;-73
2022/12/04 09:35:37;;;;;;;;;;;4.10;97.30;;;;;;5046234;28;20435;-73
2022/12/04 09:38:04;;;;;;;;;;;4.00;97.30;;;;;;5038154;28;19976;-73
2022/12/04 09:40:35;;;;;;;;;;;4.10;97.30;;;;;;5045413;28;20046;-73
2022/12/04 09:43:06;;;;;;;;;;;4.10;97.60;;;;;;5044156;28;19994;-74
2022/12/04 09:45:36;;;;;;;;;;;4.00;97.20;;;;;;5040765;28;19995;-71
2022/12/04 09:48:03;;;;;;;;;;;4.10;97.20;;;;;;5044995;28;20818;-73
2022/12/04 09:50:38;;;;;;;;;;;4.10;97.20;;;;;;5040685;28;22001;-78
2022/12/04 09:53:10;;;;;;;;;;;4.00;97.20;;;;;;5038977;28;19975;-78
2022/12/04 09:55:39;;;;;;;;;;;4.10;97.20;;;;;;5042200;28;20368;-77
2022/12/04 09:58:07;;;;;;;;;;;4.10;97.30;;;;;;5046783;28;20432;-78
2022/12/04 10:00:36;;;;;;;;;;;4.00;97.20;;;;;;5043951;28;19975;-79
2022/12/04 10:03:04;;;;;;;;;;;4.10;97.20;;;;;;5043385;28;20467;-79
2022/12/04 10:05:35;;;;;;;;;;;4.00;97.20;;;;;;5044397;28;20015;-78
2022/12/04 10:08:04;;;;;;;;;;;4.10;97.20;;;;;;5038171;28;19990;-78
2022/12/04 10:10:36;;;;;;;;;;;4.10;97.30;;;;;;5042270;28;19996;-78
2022/12/04 10:13:09;;;;;;;;;;;4.10;97.30;;;;;;5043215;28;19976;-78
2022/12/04 10:15:40;;;;;;;;;;;4.10;97.30;;;;;;5042091;28;19992;-78
2022/12/04 10:18:19;;;;;;;;;;;4.20;97.40;;;;;;5041911;28;19975;-78
2022/12/04 10:20:57;;;;;;;;;;;4.10;97.30;;;;;;5039212;28;19981;-73
2022/12/04 10:23:27;;;;;;;;;;;4.10;97.30;;;;;;5039136;28;19976;-73
2022/12/04 10:25:55;;;;;;;;;;;4.10;97.20;;;;;;5040517;28;20461;-72
2022/12/04 10:28:25;;;;;;;;;;;4.10;97.20;;;;;;5044776;28;20374;-73
2022/12/04 10:30:52;;;;;;;;;;;4.10;97.20;;;;;;5042206;28;20000;-73
2022/12/04 10:33:20;;;;;;;;;;;4.20;97.20;;;;;;5041590;28;19979;-72
2022/12/04 10:35:49;;;;;;;;;;;4.10;97.20;;;;;;5035030;28;19991;-73
2022/12/04 10:38:22;;;;;;;;;;;4.10;97.20;;;;;;5039621;28;19983;-74
2022/12/04 10:40:51;;;;;;;;;;;4.20;97.20;;;;;;5044549;28;20458;-74
2022/12/04 10:43:33;;;;;;;;;;;4.10;97.20;;;;;;5043141;28;19983;-73
2022/12/04 10:45:59;;;;;;;;;;;4.20;97.20;;;;;;5044023;28;19987;-74
2022/12/04 10:48:28;;;;;;;;;;;4.20;97.20;;;;;;5039066;28;20007;-73
2022/12/04 10:50:54;;;;;;;;;;;4.20;97.20;;;;;;5044450;28;20367;-73
2022/12/04 10:53:26;;;;;;;;;;;4.20;97.10;;;;;;5039449;28;19976;-74
2022/12/04 10:55:53;;;;;;;;;;;4.20;97.10;;;;;;5037474;28;19987;-73
2022/12/04 10:58:21;;;;;;;;;;;4.20;97.10;;;;;;5043533;28;19980;-74
2022/12/04 11:00:59;;;;;;;;;;;4.20;97.10;;;;;;5043252;28;20006;-73
2022/12/04 11:03:28;;;;;;;;;;;4.20;97.10;;;;;;5042784;28;19983;-73
2022/12/04 11:05:55;;;;;;;;;;;4.20;97.10;;;;;;5045117;28;19979;-73
2022/12/04 11:08:24;;;;;;;;;;;4.20;97.10;;;;;;5038137;28;19991;-74
2022/12/04 11:10:57;;;;;;;;;;;4.20;97.10;;;;;;5036620;28;19979;-73
2022/12/04 11:13:24;;;;;;;;;;;4.20;97.10;;;;;;5039167;28;20371;-73
2022/12/04 11:15:52;;;;;;;;;;;4.20;97.10;;;;;;5042471;28;19999;-73
2022/12/04 11:18:20;;;;;;;;;;;4.20;97.00;;;;;;5043585;28;19990;-73
2022/12/04 11:20:50;;;;;;;;;;;4.20;97.00;;;;;;5042963;28;19976;-73
2022/12/04 11:23:17;;;;;;;;;;;4.20;97.00;;;;;;5041935;28;19975;-74
2022/12/04 11:25:46;;;;;;;;;;;4.30;97.00;;;;;;5040512;28;19987;-73
2022/12/04 11:28:15;;;;;;;;;;;4.30;97.00;;;;;;5037860;28;20730;-73
2022/12/04 11:30:47;;;;;;;;;;;4.30;97.10;;;;;;5034778;28;20000;-74
2022/12/04 11:33:16;;;;;;;;;;;4.20;97.00;;;;;;5042997;28;19983;-72
2022/12/04 11:35:50;;;;;;;;;;;4.30;97.10;;;;;;5043250;28;19990;-74
2022/12/04 11:38:17;;;;;;;;;;;4.30;97.10;;;;;;5039843;28;19990;-74
2022/12/04 11:40:46;;;;;;;;;;;4.30;97.10;;;;;;5042932;28;19982;-73
2022/12/04 11:43:13;;;;;;;;;;;4.30;97.40;;;;;;5043836;28;19980;-74
2022/12/04 11:45:40;;;;;;;;;;;4.30;97.10;;;;;;5042625;28;20545;-73
2022/12/04 11:48:14;;;;;;;;;;;4.30;97.10;;;;;;5034713;28;20460;-72
2022/12/04 11:50:47;;;;;;;;;;;4.30;97.10;;;;;;5037671;28;19975;-73
2022/12/04 11:53:16;;;;;;;;;;;4.30;97.10;;;;;;5040987;28;19987;-73
2022/12/04 11:56:01;;;;;;;;;;;4.30;97.10;;;;;;5044053;28;19980;-73
2022/12/04 11:58:36;;;;;;;;;;;4.30;97.10;;;;;;5043351;28;19996;-74
2022/12/04 12:01:10;;;;;;;;;;;4.30;97.20;;;;;;5045113;28;19988;-74
2022/12/04 12:03:42;;;;;;;;;;;4.30;97.10;;;;;;5047480;28;19979;-74
2022/12/04 12:06:15;;;;;;;;;;;4.30;97.10;;;;;;5046980;28;19980;-73
2022/12/04 12:08:56;;;;;;;;;;;4.40;97.20;;;;;;5046621;28;19996;-73
2022/12/04 12:11:26;;;;;;;;;;;4.30;97.10;;;;;;5046897;28;19975;-73
2022/12/04 12:13:57;;;;;;;;;;;4.30;97.10;;;;;;5047418;28;19980;-73
2022/12/04 12:16:28;;;;;;;;;;;4.30;97.10;;;;;;5045786;28;20002;-73
2022/12/04 12:19:11;;;;;;;;;;;4.30;97.10;;;;;;5045351;28;20500;-71
2022/12/04 12:21:43;;;;;;;;;;;4.30;97.00;;;;;;5046508;28;19983;-71
2022/12/04 12:24:16;;;;;;;;;;;4.30;97.00;;;;;;5045621;28;20478;-72
2022/12/04 12:26:47;;;;;;;;;;;4.40;97.10;;;;;;5043530;28;19983;-72
2022/12/04 12:29:16;;;;;;;;;;;4.40;97.10;;;;;;5047419;28;20486;-73
2022/12/04 12:31:52;;;;;;;;;;;4.30;97.00;;;;;;5045721;28;20455;-73
2022/12/04 12:34:22;;;;;;;;;;;4.40;97.10;;;;;;5046310;28;20001;-73
2022/12/04 12:36:50;;;;;;;;;;;4.30;97.00;;;;;;5040205;28;19991;-74
2022/12/04 12:39:21;;;;;;;;;;;4.30;97.00;;;;;;5040975;28;19995;-73
2022/12/04 12:41:50;;;;;;;;;;;4.30;97.00;;;;;;5046345;28;19979;-74
2022/12/04 12:44:19;;;;;;;;;;;4.40;97.00;;;;;;5042967;28;20332;-74
2022/12/04 12:46:50;;;;;;;;;;;4.30;96.90;;;;;;5042180;28;19995;-74
2022/12/04 12:49:21;;;;;;;;;;;4.40;97.00;;;;;;5039400;28;20042;-72
2022/12/04 12:51:51;;;;;;;;;;;4.40;97.00;;;;;;5046141;28;20070;-73
2022/12/04 12:54:23;;;;;;;;;;;4.40;97.10;;;;;;5037413;28;20455;-74
2022/12/04 12:56:54;;;;;;;;;;;4.40;97.10;;;;;;5045400;28;19980;-74
2022/12/04 12:59:22;;;;;;;;;;;4.40;97.10;;;;;;5044815;28;19992;-73
2022/12/04 13:01:51;;;;;;;;;;;4.40;97.10;;;;;;5042408;28;19995;-74
2022/12/04 13:04:22;;;;;;;;;;;4.40;97.10;;;;;;5046514;28;20645;-73
2022/12/04 13:06:52;;;;;;;;;;;4.40;97.20;;;;;;5045101;28;19980;-74
2022/12/04 13:09:24;;;;;;;;;;;4.40;97.20;;;;;;5040891;28;20078;-74
2022/12/04 13:11:52;;;;;;;;;;;4.40;97.10;;;;;;5043124;28;19980;-74
2022/12/04 13:14:18;;;;;;;;;;;4.30;97.00;;;;;;5045513;28;20553;-73
2022/12/04 13:16:46;;;;;;;;;;;4.40;97.00;;;;;;5044780;28;19995;-73
2022/12/04 13:19:16;;;;;;;;;;;4.40;97.10;;;;;;5045121;28;19992;-74
2022/12/04 13:21:45;;;;;;;;;;;4.40;97.10;;;;;;5045788;28;19983;-74
2022/12/04 13:24:36;;;;;;;;;;;4.40;97.20;;;;;;5043197;28;19983;-74
2022/12/04 13:27:08;;;;;;;;;;;4.40;97.20;;;;;;5026078;28;19980;-73
2022/12/04 13:29:41;;;;;;;;;;;4.40;97.10;;;;;;5046252;28;20605;-71
2022/12/04 13:32:29;;;;;;;;;;;4.40;97.10;;;;;;5042603;28;20015;-73
2022/12/04 13:35:00;;;;;;;;;;;4.40;97.10;;;;;;5045005;28;19980;-72
2022/12/04 13:37:33;;;;;;;;;;;4.40;97.20;;;;;;5045427;28;20349;-72
2022/12/04 13:40:17;;;;;;;;;;;4.40;97.20;;;;;;5037804;28;20493;-73
2022/12/04 13:42:45;;;;;;;;;;;4.40;97.20;;;;;;5044200;28;20030;-72
2022/12/04 13:45:22;;;;;;;;;;;4.40;97.20;;;;;;5045152;28;20453;-74
2022/12/04 13:47:55;;;;;;;;;;;4.40;97.30;;;;;;5043279;28;20029;-73
2022/12/04 13:50:27;;;;;;;;;;;4.40;97.30;;;;;;5039023;28;20499;-73
2022/12/04 13:52:54;;;;;;;;;;;4.40;97.20;;;;;;5045519;28;20006;-74
2022/12/04 13:55:28;;;;;;;;;;;4.40;97.20;;;;;;5044938;28;19983;-72
2022/12/04 13:57:57;;;;;;;;;;;4.40;97.20;;;;;;5043113;28;19998;-74
2022/12/04 14:00:27;;;;;;;;;;;4.40;97.30;;;;;;5039647;28;20543;-73
2022/12/04 14:02:55;;;;;;;;;;;4.40;97.30;;;;;;5037508;28;19979;-74
2022/12/04 14:05:26;;;;;;;;;;;4.40;97.30;;;;;;5045849;28;19976;-73
2022/12/04 14:07:58;;;;;;;;;;;4.40;97.40;;;;;;5042524;28;20007;-74
2022/12/04 14:10:27;;;;;;;;;;;4.40;97.40;;;;;;5043097;28;20060;-72
2022/12/04 14:12:58;;;;;;;;;;;4.40;97.40;;;;;;5046020;28;20074;-73
2022/12/04 14:15:26;;;;;;;;;;;4.40;97.40;;;;;;5042199;28;20513;-73
2022/12/04 14:17:58;;;;;;;;;;;4.40;97.50;;;;;;5040760;28;19980;-74
2022/12/04 14:20:26;;;;;;;;;;;4.40;97.50;;;;;;5032077;28;20057;-73
2022/12/04 14:22:52;;;;;;;;;;;4.40;97.50;;;;;;5038076;28;19980;-74
2022/12/04 14:25:24;;;;;;;;;;;4.40;97.50;;;;;;5044472;28;19975;-74
2022/12/04 14:27:51;;;;;;;;;;;4.50;97.60;;;;;;5044830;28;20486;-73
2022/12/04 14:30:21;;;;;;;;;;;4.40;97.50;;;;;;5042000;28;20536;-71
2022/12/04 14:32:49;;;;;;;;;;;4.40;97.50;;;;;;5036537;28;19987;-74
2022/12/04 14:35:17;;;;;;;;;;;4.40;97.60;;;;;;5042948;28;19976;-74
2022/12/04 14:37:47;;;;;;;;;;;4.40;97.60;;;;;;5045032;28;19971;-73
2022/12/04 14:40:17;;;;;;;;;;;4.50;97.50;;;;;;5039066;28;20015;-73
2022/12/04 14:42:47;;;;;;;;;;;4.40;97.50;;;;;;5037774;28;19987;-73
2022/12/04 14:45:19;;;;;;;;;;;4.50;97.50;;;;;;5040279;28;19975;-73
2022/12/04 14:47:50;;;;;;;;;;;4.40;97.50;;;;;;5045557;28;19980;-73
2022/12/04 14:50:25;;;;;;;;;;;4.40;97.50;;;;;;5042546;28;19996;-74
2022/12/04 14:52:54;;;;;;;;;;;4.40;97.50;;;;;;5045698;28;20342;-74